createdAt,value
2018-12-27T00:00:15.906Z,17.70
2018-12-27T00:02:38.190Z,15.87
2018-12-27T00:05:00.443Z,16.17
2018-12-27T00:07:22.688Z,17.23
2018-12-27T00:09:44.948Z,18.17
2018-12-27T00:12:07.207Z,17.07
2018-12-27T00:14:29.436Z,17.60
2018-12-27T00:16:51.674Z,16.33
2018-12-27T00:19:13.913Z,18.03
2018-12-27T00:21:36.185Z,16.27
2018-12-27T00:23:58.508Z,15.97
2018-12-27T00:26:20.788Z,16.43
2018-12-27T00:28:43.005Z,15.70
2018-12-27T00:31:05.217Z,16.17
2018-12-27T00:33:27.420Z,14.33
2018-12-27T00:35:49.701Z,16.93
2018-12-27T00:38:11.934Z,16.80
2018-12-27T00:40:34.172Z,16.50
2018-12-27T00:42:56.485Z,16.63
2018-12-27T00:45:18.716Z,16.00
2018-12-27T00:47:40.914Z,22.10
2018-12-27T00:50:03.147Z,16.17
2018-12-27T00:52:25.383Z,16.73
2018-12-27T00:54:47.657Z,14.27
2018-12-27T00:57:09.900Z,14.43
2018-12-27T00:59:32.141Z,14.63
2018-12-27T01:01:54.376Z,15.83
2018-12-27T01:04:16.598Z,14.93
2018-12-27T01:06:38.843Z,18.03
2018-12-27T01:09:01.079Z,22.03
2018-12-27T01:11:23.288Z,20.00
2018-12-27T01:13:45.494Z,14.97
2018-12-27T01:16:07.704Z,19.47
2018-12-27T01:18:29.936Z,17.53
2018-12-27T01:20:52.134Z,19.60
2018-12-27T01:23:14.381Z,12.93
2018-12-27T01:25:36.612Z,14.00
2018-12-27T01:27:58.837Z,14.67
2018-12-27T01:30:21.107Z,11.73
2018-12-27T01:32:43.327Z,15.47
2018-12-27T01:35:05.546Z,12.13
2018-12-27T01:37:27.763Z,11.47
2018-12-27T01:39:49.975Z,15.17
2018-12-27T01:42:12.165Z,12.93
2018-12-27T01:44:34.422Z,11.53
2018-12-27T01:46:56.651Z,14.10
2018-12-27T01:49:18.884Z,12.20
2018-12-27T01:51:41.127Z,11.27
2018-12-27T01:54:03.379Z,11.80
2018-12-27T01:56:25.636Z,11.93
2018-12-27T01:58:47.900Z,12.40
2018-12-27T02:01:10.115Z,13.73
2018-12-27T02:03:32.419Z,12.97
2018-12-27T02:05:54.651Z,12.60
2018-12-27T02:08:16.895Z,13.43
2018-12-27T02:10:39.102Z,13.73
2018-12-27T02:13:01.368Z,11.90
2018-12-27T02:15:23.604Z,12.37
2018-12-27T02:17:45.839Z,12.23
2018-12-27T02:20:08.082Z,13.10
2018-12-27T02:22:30.318Z,11.57
2018-12-27T02:24:52.552Z,13.73
2018-12-27T02:27:14.789Z,12.20
2018-12-27T02:29:37.015Z,12.03
2018-12-27T02:31:59.226Z,13.07
2018-12-27T02:34:21.471Z,11.80
2018-12-27T02:36:43.687Z,12.80
2018-12-27T02:39:06.680Z,13.23
2018-12-27T02:41:28.884Z,12.93
2018-12-27T02:43:51.176Z,12.63
2018-12-27T02:46:13.432Z,12.30
2018-12-27T02:48:35.647Z,13.30
2018-12-27T02:50:57.943Z,12.70
2018-12-27T02:53:20.161Z,12.00
2018-12-27T02:55:42.390Z,12.30
2018-12-27T02:58:04.635Z,12.40
2018-12-27T03:00:26.877Z,11.53
2018-12-27T03:02:49.124Z,12.03
2018-12-27T03:05:11.351Z,11.70
2018-12-27T03:07:33.561Z,11.17
2018-12-27T03:16:47.145Z,9.70
2018-12-27T03:19:09.342Z,9.37
2018-12-27T03:21:31.574Z,10.83
2018-12-27T03:23:53.807Z,11.10
2018-12-27T03:26:16.024Z,11.87
2018-12-27T03:28:38.279Z,10.87
2018-12-27T03:31:00.476Z,11.23
2018-12-27T03:33:22.708Z,13.13
2018-12-27T03:35:44.956Z,12.63
2018-12-27T03:38:07.154Z,12.63
2018-12-27T03:40:29.478Z,12.73
2018-12-27T03:42:51.622Z,12.17
2018-12-27T03:45:13.847Z,12.53
2018-12-27T03:47:36.070Z,17.03
2018-12-27T03:49:58.330Z,11.20
2018-12-27T03:52:20.535Z,12.43
2018-12-27T03:54:42.759Z,14.23
2018-12-27T03:57:05.011Z,12.87
2018-12-27T03:59:27.265Z,17.27
2018-12-27T04:01:49.481Z,16.87
2018-12-27T04:04:11.701Z,14.27
2018-12-27T04:06:33.892Z,11.33
2018-12-27T04:08:56.135Z,12.17
2018-12-27T04:11:18.319Z,12.77
2018-12-27T04:13:40.579Z,13.77
2018-12-27T04:16:02.782Z,12.60
2018-12-27T04:18:25.005Z,13.13
2018-12-27T04:20:47.251Z,12.90
2018-12-27T04:23:09.488Z,12.00
2018-12-27T04:25:31.771Z,11.97
2018-12-27T04:27:54.051Z,12.40
2018-12-27T04:30:16.391Z,11.97
2018-12-27T04:32:38.723Z,12.87
2018-12-27T04:35:01.016Z,12.30
2018-12-27T04:37:23.246Z,12.63
2018-12-27T04:39:45.479Z,15.90
2018-12-27T04:42:07.747Z,16.27
2018-12-27T04:44:30.029Z,18.80
2018-12-27T04:46:52.280Z,17.40
2018-12-27T04:49:14.507Z,15.57
2018-12-27T04:51:36.768Z,15.63
2018-12-27T04:53:59.003Z,17.20
2018-12-27T04:56:21.284Z,15.80
2018-12-27T04:58:43.526Z,13.13
2018-12-27T05:01:05.821Z,14.77
2018-12-27T05:03:28.054Z,18.53
2018-12-27T05:05:50.321Z,20.90
2018-12-27T05:08:12.597Z,16.63
2018-12-27T05:10:34.865Z,17.50
2018-12-27T05:12:57.066Z,20.40
2018-12-27T05:15:19.281Z,16.73
2018-12-27T05:17:41.567Z,20.77
2018-12-27T05:20:04.077Z,19.57
2018-12-27T05:22:26.327Z,19.27
2018-12-27T05:24:48.552Z,17.23
2018-12-27T05:27:10.801Z,12.80
2018-12-27T05:29:33.047Z,16.73
2018-12-27T05:31:55.313Z,16.43
2018-12-27T05:34:17.527Z,12.63
2018-12-27T05:36:39.768Z,12.53
2018-12-27T05:39:02.031Z,11.80
2018-12-27T05:41:24.259Z,14.00
2018-12-27T05:43:46.811Z,12.43
2018-12-27T05:46:09.046Z,12.47
2018-12-27T05:48:31.328Z,12.47
2018-12-27T05:50:53.559Z,10.40
2018-12-27T05:53:15.795Z,12.57
2018-12-27T05:55:38.043Z,10.83
2018-12-27T05:58:00.290Z,12.87
2018-12-27T06:00:22.529Z,13.47
2018-12-27T06:02:44.826Z,11.73
2018-12-27T06:05:07.098Z,9.70
2018-12-27T06:07:29.328Z,9.63
2018-12-27T06:09:51.599Z,11.67
2018-12-27T06:12:13.835Z,10.67
2018-12-27T06:14:36.054Z,16.00
2018-12-27T06:16:58.319Z,9.57
2018-12-27T06:19:20.551Z,10.13
2018-12-27T06:21:42.763Z,11.10
2018-12-27T06:24:04.974Z,10.20
2018-12-27T06:26:27.231Z,10.47
2018-12-27T06:28:49.923Z,9.07
2018-12-27T06:31:12.155Z,8.50
2018-12-27T06:33:34.414Z,9.53
2018-12-27T06:35:56.655Z,7.63
2018-12-27T06:38:18.906Z,9.20
2018-12-27T06:40:41.155Z,9.43
2018-12-27T06:43:03.389Z,9.07
2018-12-27T06:45:25.643Z,9.87
2018-12-27T06:47:47.903Z,11.13
2018-12-27T06:50:10.143Z,9.77
2018-12-27T06:52:32.426Z,9.97
2018-12-27T06:54:54.685Z,8.60
2018-12-27T06:57:16.899Z,9.03
2018-12-27T06:59:39.138Z,8.23
2018-12-27T07:02:01.415Z,10.87
2018-12-27T07:04:23.669Z,8.63
2018-12-27T07:06:45.911Z,9.60
2018-12-27T07:09:08.187Z,9.00
2018-12-27T07:11:30.459Z,9.07
2018-12-27T07:13:53.415Z,9.83
2018-12-27T07:16:15.896Z,9.37
2018-12-27T07:18:38.410Z,9.87
2018-12-27T07:21:00.867Z,8.77
2018-12-27T07:23:23.331Z,10.63
2018-12-27T07:25:45.739Z,8.73
2018-12-27T07:28:08.157Z,10.47
2018-12-27T07:30:30.543Z,8.80
2018-12-27T07:32:53.034Z,9.57
2018-12-27T07:35:15.491Z,10.37
2018-12-27T07:37:37.883Z,9.93
2018-12-27T07:40:00.173Z,10.80
2018-12-27T07:42:22.386Z,9.10
2018-12-27T07:44:44.879Z,10.37
2018-12-27T07:47:07.257Z,10.60
2018-12-27T07:49:29.541Z,12.60
2018-12-27T07:51:51.763Z,10.50
2018-12-27T07:54:14.049Z,10.17
2018-12-27T07:56:36.335Z,10.30
2018-12-27T07:58:58.582Z,9.63
2018-12-27T08:01:20.810Z,9.80
2018-12-27T08:03:43.106Z,10.53
2018-12-27T08:06:05.371Z,11.30
2018-12-27T08:08:27.632Z,9.67
2018-12-27T08:10:49.861Z,10.47
2018-12-27T08:13:12.170Z,11.17
2018-12-27T08:15:34.403Z,9.23
2018-12-27T08:17:56.639Z,10.13
2018-12-27T08:20:18.894Z,7.87
2018-12-27T08:22:41.196Z,7.13
2018-12-27T08:25:03.659Z,8.37
2018-12-27T08:27:25.955Z,8.57
2018-12-27T08:29:48.211Z,8.73
2018-12-27T08:32:10.567Z,10.83
2018-12-27T08:34:32.843Z,9.43
2018-12-27T08:36:55.077Z,10.17
2018-12-27T08:39:17.416Z,8.30
2018-12-27T08:41:39.643Z,7.80
2018-12-27T08:44:01.895Z,9.13
2018-12-27T08:46:24.174Z,7.70
2018-12-27T08:48:46.471Z,8.07
2018-12-27T08:51:08.772Z,8.60
2018-12-27T08:53:31.027Z,8.27
2018-12-27T08:55:53.275Z,8.63
2018-12-27T08:58:15.558Z,7.47
2018-12-27T09:00:37.785Z,7.93
2018-12-27T09:03:00.067Z,7.63
2018-12-27T09:05:22.307Z,8.70
2018-12-27T09:07:44.550Z,7.37
2018-12-27T09:10:06.823Z,9.57
2018-12-27T09:12:29.070Z,8.60
2018-12-27T09:14:51.355Z,7.67
2018-12-27T09:17:13.624Z,9.47
2018-12-27T09:19:35.858Z,9.13
2018-12-27T09:21:58.104Z,7.43
2018-12-27T09:24:20.401Z,9.07
2018-12-27T09:26:42.709Z,8.10
2018-12-27T09:29:05.006Z,9.20
2018-12-27T09:31:27.273Z,6.63
2018-12-27T09:33:49.536Z,6.30
2018-12-27T09:36:11.851Z,6.93
2018-12-27T09:38:34.151Z,6.60
2018-12-27T09:40:56.445Z,7.20
2018-12-27T09:43:18.735Z,6.67
2018-12-27T09:45:40.991Z,7.67
2018-12-27T09:48:03.258Z,8.23
2018-12-27T09:50:25.531Z,6.97
2018-12-27T09:52:47.783Z,6.20
2018-12-27T09:55:10.043Z,5.80
2018-12-27T09:57:32.303Z,5.43
2018-12-27T09:59:54.564Z,6.33
2018-12-27T10:02:16.771Z,5.70
2018-12-27T10:04:39.019Z,5.20
2018-12-27T10:07:01.275Z,4.67
2018-12-27T10:09:23.482Z,6.23
2018-12-27T10:11:45.782Z,6.40
2018-12-27T10:14:08.080Z,4.67
2018-12-27T10:16:30.352Z,4.40
2018-12-27T10:18:52.604Z,5.20
2018-12-27T10:21:14.885Z,5.97
2018-12-27T10:23:37.123Z,6.43
2018-12-27T10:25:59.342Z,6.20
2018-12-27T10:28:21.759Z,5.93
2018-12-27T10:30:44.449Z,7.23
2018-12-27T10:33:06.799Z,6.27
2018-12-27T10:35:29.072Z,5.70
2018-12-27T10:37:51.323Z,5.07
2018-12-27T10:40:13.618Z,5.03
2018-12-27T10:42:35.861Z,5.17
2018-12-27T10:44:58.092Z,4.40
2018-12-27T10:47:20.347Z,4.17
2018-12-27T10:49:42.627Z,4.27
2018-12-27T10:52:04.878Z,7.40
2018-12-27T10:54:27.075Z,7.20
2018-12-27T10:56:49.331Z,6.50
2018-12-27T10:59:11.623Z,6.90
2018-12-27T11:01:33.866Z,9.37
2018-12-27T11:03:56.122Z,10.77
2018-12-27T11:06:18.419Z,10.60
2018-12-27T11:08:40.671Z,14.73
2018-12-27T11:11:02.956Z,13.70
2018-12-27T11:13:25.188Z,12.90
2018-12-27T11:15:47.493Z,12.93
2018-12-27T11:18:09.742Z,17.17
2018-12-27T11:20:32.487Z,10.63
2018-12-27T11:22:54.714Z,9.30
2018-12-27T11:25:16.944Z,12.67
2018-12-27T11:27:39.255Z,13.07
2018-12-27T11:30:01.530Z,12.97
2018-12-27T11:32:23.763Z,13.07
2018-12-27T11:34:46.039Z,11.97
2018-12-27T11:37:08.287Z,12.37
2018-12-27T11:39:30.574Z,11.43
2018-12-27T11:41:52.821Z,9.47
2018-12-27T11:44:15.062Z,10.93
2018-12-27T11:46:37.322Z,11.27
2018-12-27T11:48:59.633Z,10.17
2018-12-27T11:51:21.893Z,11.50
2018-12-27T11:53:44.192Z,13.23
2018-12-27T11:56:06.572Z,13.73
2018-12-27T11:58:28.913Z,13.40
2018-12-27T12:00:51.139Z,14.10
2018-12-27T12:03:13.387Z,12.47
2018-12-27T12:05:35.683Z,12.83
2018-12-27T12:07:57.971Z,12.03
2018-12-27T12:10:20.256Z,12.27
2018-12-27T12:12:42.549Z,13.37
2018-12-27T12:15:05.331Z,13.33
2018-12-27T12:17:27.579Z,14.10
2018-12-27T12:19:49.947Z,17.97
2018-12-27T12:22:12.282Z,16.87
2018-12-27T12:24:34.586Z,15.60
2018-12-27T12:26:56.836Z,20.00
2018-12-27T12:29:19.088Z,20.50
2018-12-27T12:31:41.425Z,21.80
2018-12-27T12:34:03.733Z,20.50
2018-12-27T12:36:26.008Z,18.40
2018-12-27T12:38:48.291Z,21.30
2018-12-27T12:41:10.507Z,18.63
2018-12-27T12:43:32.781Z,14.83
2018-12-27T12:45:55.103Z,18.00
2018-12-27T12:48:17.316Z,19.33
2018-12-27T12:50:39.568Z,18.37
2018-12-27T12:53:01.859Z,17.23
2018-12-27T12:55:24.127Z,15.87
2018-12-27T12:57:46.483Z,16.83
2018-12-27T13:00:10.646Z,19.17
2018-12-27T13:02:32.915Z,17.13
2018-12-27T13:04:55.156Z,14.33
2018-12-27T13:07:17.391Z,14.17
2018-12-27T13:09:39.676Z,16.67
2018-12-27T13:12:01.909Z,19.27
2018-12-27T13:14:24.209Z,16.30
2018-12-27T13:16:46.563Z,18.63
2018-12-27T13:19:08.892Z,20.03
2018-12-27T13:21:31.176Z,15.83
2018-12-27T13:23:53.395Z,13.40
2018-12-27T13:26:15.654Z,14.27
2018-12-27T13:28:37.864Z,17.97
2018-12-27T13:31:00.128Z,18.47
2018-12-27T13:33:22.475Z,19.60
2018-12-27T13:35:44.752Z,16.83
2018-12-27T13:38:06.953Z,18.40
2018-12-27T13:40:29.189Z,16.77
2018-12-27T13:42:51.438Z,15.87
2018-12-27T13:45:13.715Z,17.83
2018-12-27T13:47:35.963Z,15.13
2018-12-27T13:49:58.232Z,18.47
2018-12-27T13:52:20.463Z,16.67
2018-12-27T13:54:42.703Z,19.03
2018-12-27T13:57:05.007Z,19.50
2018-12-27T13:59:27.290Z,17.23
2018-12-27T14:01:49.535Z,16.07
2018-12-27T14:04:11.763Z,14.03
2018-12-27T14:06:34.031Z,16.33
2018-12-27T14:08:56.335Z,18.27
2018-12-27T14:11:18.528Z,15.23
2018-12-27T14:13:40.808Z,13.37
2018-12-27T14:16:03.115Z,18.63
2018-12-27T14:18:25.453Z,19.60
2018-12-27T14:20:47.668Z,17.90
2018-12-27T14:23:09.919Z,19.30
2018-12-27T14:25:32.162Z,20.53
2018-12-27T14:27:54.399Z,20.43
2018-12-27T14:30:16.635Z,18.80
2018-12-27T14:32:38.904Z,19.80
2018-12-27T14:35:01.191Z,19.57
2018-12-27T14:37:23.459Z,18.10
2018-12-27T14:39:45.778Z,18.97
2018-12-27T14:42:08.007Z,13.10
2018-12-27T14:44:30.266Z,15.23
2018-12-27T14:46:52.505Z,11.73
2018-12-27T14:49:15.062Z,12.07
2018-12-27T14:51:37.395Z,16.57
2018-12-27T14:53:59.652Z,14.93
2018-12-27T14:56:21.929Z,14.63
2018-12-27T14:58:44.409Z,15.63
2018-12-27T15:01:06.692Z,18.23
2018-12-27T15:03:28.907Z,17.47
2018-12-27T15:05:51.157Z,20.80
2018-12-27T15:08:13.396Z,18.63
2018-12-27T15:10:36.005Z,17.57
2018-12-27T15:12:58.226Z,19.07
2018-12-27T15:15:20.512Z,17.90
2018-12-27T15:17:42.789Z,18.10
2018-12-27T15:20:05.305Z,18.97
2018-12-27T15:22:27.553Z,18.63
2018-12-27T15:24:49.803Z,21.37
2018-12-27T15:27:12.145Z,18.67
2018-12-27T15:29:34.407Z,13.77
2018-12-27T15:31:56.690Z,14.43
2018-12-27T15:34:18.934Z,11.47
2018-12-27T15:36:41.221Z,12.20
2018-12-27T15:39:05.086Z,17.90
2018-12-27T15:41:27.306Z,16.60
2018-12-27T15:43:49.575Z,12.53
2018-12-27T15:46:11.878Z,17.27
2018-12-27T15:48:34.152Z,19.23
2018-12-27T15:50:56.412Z,12.13
2018-12-27T15:53:18.647Z,12.07
2018-12-27T15:55:40.955Z,11.10
2018-12-27T15:58:03.239Z,12.37
2018-12-27T16:00:25.495Z,11.40
2018-12-27T16:02:47.778Z,14.17
2018-12-27T16:05:11.402Z,13.57
2018-12-27T16:07:32.327Z,15.30
2018-12-27T16:09:54.564Z,17.50
2018-12-27T16:12:16.847Z,10.63
2018-12-27T16:14:39.964Z,13.33
2018-12-27T16:17:01.325Z,14.50
2018-12-27T16:19:23.572Z,11.30
2018-12-27T16:21:45.860Z,12.40
2018-12-27T16:24:08.117Z,10.30
2018-12-27T16:26:30.412Z,13.00
2018-12-27T16:28:52.699Z,12.67
2018-12-27T16:31:14.983Z,12.30
2018-12-27T16:33:37.227Z,11.97
2018-12-27T16:35:59.463Z,12.70
2018-12-27T16:38:21.753Z,11.37
2018-12-27T16:40:43.999Z,11.90
2018-12-27T16:43:06.303Z,13.20
2018-12-27T16:45:28.563Z,11.50
2018-12-27T16:47:50.839Z,11.97
2018-12-27T16:50:13.103Z,13.43
2018-12-27T16:52:35.406Z,11.83
2018-12-27T16:54:57.683Z,12.90
2018-12-27T16:57:20.097Z,13.50
2018-12-27T16:59:42.223Z,12.53
2018-12-27T17:02:04.568Z,12.63
2018-12-27T17:04:26.828Z,13.50
2018-12-27T17:06:49.079Z,11.53
2018-12-27T17:09:11.330Z,12.13
2018-12-27T17:11:33.599Z,11.90
2018-12-27T17:13:55.863Z,10.77
2018-12-27T17:16:18.123Z,12.27
2018-12-27T17:18:40.359Z,13.23
2018-12-27T17:21:02.655Z,12.53
2018-12-27T17:23:24.975Z,12.83
2018-12-27T17:25:47.208Z,13.40
2018-12-27T17:28:09.490Z,12.70
2018-12-27T17:30:31.751Z,13.37
2018-12-27T17:32:54.063Z,12.43
2018-12-27T17:35:16.351Z,13.03
2018-12-27T17:37:38.603Z,13.10
2018-12-27T17:40:00.872Z,13.70
2018-12-27T17:42:23.204Z,13.93
2018-12-27T17:44:45.522Z,14.23
2018-12-27T17:47:07.787Z,13.10
2018-12-27T17:49:30.114Z,13.33
2018-12-27T17:51:52.407Z,12.60
2018-12-27T17:54:14.751Z,14.40
2018-12-27T17:56:37.023Z,14.40
2018-12-27T17:58:59.267Z,14.63
2018-12-27T18:01:21.523Z,14.40
2018-12-27T18:03:43.803Z,14.27
2018-12-27T18:06:06.071Z,13.70
2018-12-27T18:08:28.329Z,18.97
2018-12-27T18:10:50.595Z,15.07
2018-12-27T18:13:12.891Z,18.53
2018-12-27T18:15:35.166Z,16.70
2018-12-27T18:17:57.375Z,16.37
2018-12-27T18:20:19.632Z,13.40
2018-12-27T18:22:41.934Z,15.60
2018-12-27T18:25:04.335Z,15.27
2018-12-27T18:27:26.608Z,14.83
2018-12-27T18:29:48.884Z,14.33
2018-12-27T18:32:11.215Z,13.00
2018-12-27T18:34:33.455Z,14.97
2018-12-27T18:36:55.700Z,14.70
2018-12-27T18:39:18.003Z,14.17
2018-12-27T18:41:40.310Z,14.87
2018-12-27T18:44:02.595Z,15.00
2018-12-27T18:46:24.856Z,15.27
2018-12-27T18:48:47.114Z,15.63
2018-12-27T18:51:09.420Z,14.70
2018-12-27T18:53:31.684Z,13.63
2018-12-27T18:55:53.948Z,15.17
2018-12-27T18:58:16.210Z,14.23
2018-12-27T19:00:38.471Z,14.37
2018-12-27T19:03:00.734Z,14.73
2018-12-27T19:05:22.967Z,15.07
2018-12-27T19:07:45.307Z,16.37
2018-12-27T19:10:07.539Z,15.30
2018-12-27T19:12:41.123Z,13.67
2018-12-27T19:15:07.167Z,15.17
2018-12-27T19:17:35.673Z,13.93
2018-12-27T19:19:57.911Z,15.20
2018-12-27T19:22:31.920Z,14.73
2018-12-27T19:24:54.184Z,15.20
2018-12-27T19:27:16.463Z,13.83
2018-12-27T19:29:38.796Z,15.90
2018-12-27T19:32:01.113Z,15.53
2018-12-27T19:34:23.403Z,17.80
2018-12-27T19:36:45.668Z,16.33
2018-12-27T19:39:07.903Z,17.37
2018-12-27T19:41:30.140Z,17.37
2018-12-27T19:43:52.374Z,19.17
2018-12-27T19:46:14.650Z,22.80
2018-12-27T19:48:36.943Z,17.67
2018-12-27T19:50:59.224Z,20.83
2018-12-27T19:53:21.487Z,21.63
2018-12-27T19:55:43.763Z,22.33
2018-12-27T19:58:06.032Z,16.43
2018-12-27T20:00:28.339Z,19.50
2018-12-27T20:02:50.699Z,19.90
2018-12-27T20:05:13.013Z,20.80
2018-12-27T20:07:35.287Z,17.87
2018-12-27T20:09:57.577Z,17.03
2018-12-27T20:12:19.848Z,18.47
2018-12-27T20:14:42.121Z,18.93
2018-12-27T20:17:04.379Z,17.23
2018-12-27T20:19:26.652Z,17.43
2018-12-27T20:21:48.895Z,17.40
2018-12-27T20:24:11.207Z,17.13
2018-12-27T20:26:33.456Z,16.50
2018-12-27T20:28:55.767Z,20.43
2018-12-27T20:31:18.160Z,17.90
2018-12-27T20:33:40.423Z,17.80
2018-12-27T20:36:02.668Z,17.47
2018-12-27T20:38:24.904Z,15.80
2018-12-27T20:40:47.267Z,15.20
2018-12-27T20:43:09.518Z,20.07
2018-12-27T20:48:19.457Z,18.93
2018-12-27T20:50:41.772Z,17.50
2018-12-27T20:54:28.608Z,16.43
2018-12-27T20:56:50.886Z,18.30
2018-12-27T20:59:13.219Z,16.83
2018-12-27T21:01:35.520Z,17.43
2018-12-27T21:03:57.882Z,18.27
2018-12-27T21:06:20.187Z,17.17
2018-12-27T21:08:44.610Z,17.10
2018-12-27T21:11:08.366Z,17.70
2018-12-27T21:13:30.909Z,16.63
2018-12-27T21:15:53.466Z,17.43
2018-12-27T21:18:16.125Z,18.00
2018-12-27T21:20:38.419Z,15.90
2018-12-27T21:23:01.667Z,17.00
2018-12-27T21:25:24.448Z,16.07
2018-12-27T21:27:47.267Z,17.20
2018-12-27T21:37:00.895Z,18.70
2018-12-27T21:39:23.131Z,19.13
2018-12-27T21:41:45.408Z,20.93
2018-12-27T21:44:07.661Z,19.70
2018-12-27T21:46:29.981Z,19.37
2018-12-27T21:48:52.260Z,20.97
2018-12-27T21:51:14.574Z,21.00
2018-12-27T21:53:36.887Z,21.77
2018-12-27T21:55:59.133Z,20.73
2018-12-27T21:58:21.393Z,22.90
2018-12-27T22:00:43.697Z,25.13
2018-12-27T22:03:06.003Z,24.90
2018-12-27T22:05:28.240Z,23.00
2018-12-27T22:07:51.301Z,23.03
2018-12-27T22:10:13.711Z,22.83
2018-12-27T22:12:36.160Z,23.13
2018-12-27T22:14:58.485Z,22.33
2018-12-27T22:17:20.839Z,21.03
2018-12-27T22:19:43.121Z,21.27
2018-12-27T22:22:05.515Z,20.80
2018-12-27T22:24:27.941Z,20.77
2018-12-27T22:26:50.419Z,18.47
2018-12-27T22:29:12.762Z,17.57
2018-12-27T22:31:35.171Z,16.83
2018-12-27T22:33:57.435Z,16.37
2018-12-27T22:36:19.674Z,14.97
2018-12-27T22:38:41.901Z,15.73
2018-12-27T22:41:04.169Z,13.30
2018-12-27T22:43:26.429Z,14.67
2018-12-27T22:45:48.685Z,15.13
2018-12-27T22:48:10.924Z,13.73
2018-12-27T22:50:33.174Z,11.57
2018-12-27T22:52:55.438Z,12.60
2018-12-27T22:55:17.685Z,12.97
2018-12-27T22:57:39.945Z,12.43
2018-12-27T23:00:02.410Z,10.57
2018-12-27T23:02:24.704Z,10.97
2018-12-27T23:04:46.941Z,13.90
2018-12-27T23:07:09.351Z,11.20
2018-12-27T23:09:31.735Z,10.23
2018-12-27T23:11:54.189Z,9.27
2018-12-27T23:14:16.411Z,9.97
2018-12-27T23:16:38.671Z,9.73
2018-12-27T23:19:00.914Z,8.17
2018-12-27T23:21:23.247Z,9.47
2018-12-27T23:23:45.496Z,9.87
2018-12-27T23:26:07.773Z,9.73
2018-12-27T23:28:30.000Z,9.47
2018-12-27T23:30:52.255Z,8.50
2018-12-27T23:33:14.507Z,9.30
2018-12-27T23:35:36.715Z,8.90
2018-12-27T23:37:59.017Z,9.10
2018-12-27T23:40:21.242Z,8.20
2018-12-27T23:42:43.452Z,8.33
2018-12-27T23:45:06.572Z,7.93
2018-12-27T23:47:28.806Z,7.10
2018-12-27T23:49:51.043Z,7.50
2018-12-27T23:52:13.296Z,7.90
2018-12-27T23:54:35.569Z,6.63
2018-12-27T23:56:57.819Z,7.03
2018-12-27T23:59:20.101Z,6.87
